Time;durP1;ratioP1;P1;durP2;ratioP2;P2;SDS_P1;SDS_P2;PMS_P1;PMS_P2;Temp;Humidity;BMP_temperature;BMP_pressure;BME280_temperature;BME280_humidity;BME280_pressure;Samples;Min_cycle;Max_cycle;Signal;HPM_P1;HPM_P2
2021/09/26 00:09:50;;;;;;;46.38;24.23;;;12.00;99.90;;;;;;21161124;28;20035;-53
2021/09/26 00:19:52;;;;;;;49.75;25.20;;;11.80;99.90;;;;;;21161208;28;20028;-51
2021/09/26 00:29:54;;;;;;;81.50;36.05;;;12.00;99.90;;;;;;21160284;28;20478;-52
2021/09/26 00:39:56;;;;;;;252.85;44.92;;;12.40;99.90;;;;;;21159363;28;20036;-53
2021/09/26 00:49:57;;;;;;;67.95;28.10;;;12.60;99.90;;;;;;21158184;28;20429;-54
2021/09/26 00:59:59;;;;;;;41.10;21.00;;;12.60;99.90;;;;;;21157250;28;20040;-56
2021/09/26 01:10:03;;;;;;;41.22;20.30;;;12.30;99.90;;;;;;21156651;28;20035;-53
2021/09/26 01:20:21;;;;;;;63.80;30.00;;;12.10;99.90;;;;;;21155738;28;20089;-56
2021/09/26 01:30:33;;;;;;;55.75;25.73;;;12.20;99.90;;;;;;21184007;28;20035;-53
2021/09/26 01:40:57;;;;;;;44.13;21.02;;;12.20;99.90;;;;;;21204326;27;20043;-53
2021/09/26 01:51:01;;;;;;;42.17;21.35;;;12.10;99.90;;;;;;21208037;27;20039;-52
2021/09/26 02:01:05;;;;;;;42.13;20.27;;;12.10;99.90;;;;;;21154953;28;20548;-51
2021/09/26 02:11:09;;;;;;;47.22;23.15;;;12.20;99.90;;;;;;21146846;28;20073;-56
2021/09/26 02:21:13;;;;;;;32.35;18.08;;;12.30;99.90;;;;;;21153328;28;20077;-54
2021/09/26 02:31:15;;;;;;;23.75;10.75;;;12.40;99.90;;;;;;21157734;28;20023;-53
2021/09/26 02:41:26;;;;;;;628.33;50.90;;;12.70;99.90;;;;;;21120920;28;20040;-56
2021/09/26 02:51:29;;;;;;;350.95;36.70;;;13.00;99.90;;;;;;21111359;28;20070;-54
2021/09/26 03:01:31;;;;;;;380.00;40.63;;;12.90;99.90;;;;;;21081910;28;20059;-54
2021/09/26 03:11:33;;;;;;;52.80;25.60;;;12.90;99.90;;;;;;21080978;28;20047;-55
2021/09/26 03:21:35;;;;;;;37.38;18.63;;;12.70;99.90;;;;;;21081505;28;20540;-54
2021/09/26 03:31:37;;;;;;;44.80;22.85;;;12.30;99.90;;;;;;21080892;28;20024;-53
2021/09/26 03:41:39;;;;;;;63.20;27.60;;;12.10;99.90;;;;;;21079231;28;20051;-57
2021/09/26 03:51:42;;;;;;;59.10;27.80;;;12.30;99.90;;;;;;21078771;28;20545;-55
2021/09/26 04:01:44;;;;;;;46.75;22.40;;;12.40;99.90;;;;;;21078304;28;20032;-53
2021/09/26 04:11:46;;;;;;;40.55;19.38;;;12.20;99.90;;;;;;21076852;28;20113;-54
2021/09/26 04:21:50;;;;;;;54.80;27.13;;;12.10;99.90;;;;;;21076675;28;20113;-51
2021/09/26 04:31:52;;;;;;;47.70;23.45;;;12.20;99.90;;;;;;21075614;28;20387;-52
2021/09/26 04:41:54;;;;;;;66.43;27.38;;;11.90;99.90;;;;;;21120392;28;20032;-51
2021/09/26 04:52:00;;;;;;;55.75;26.00;;;11.50;99.90;;;;;;21158155;28;20023;-51
2021/09/26 05:02:02;;;;;;;109.75;39.00;;;11.80;99.90;;;;;;21185575;28;20039;-53
2021/09/26 05:12:05;;;;;;;89.28;37.80;;;12.20;99.90;;;;;;21156728;28;20039;-52
2021/09/26 05:22:07;;;;;;;88.15;36.05;;;12.50;99.90;;;;;;21156282;28;20395;-57
2021/09/26 05:32:09;;;;;;;99.85;38.25;;;12.60;99.90;;;;;;21157306;28;20378;-53
2021/09/26 05:42:11;;;;;;;75.05;30.58;;;12.80;99.90;;;;;;21211294;27;20425;-52
2021/09/26 05:52:16;;;;;;;65.30;30.38;;;13.00;99.90;;;;;;21168713;27;20031;-56
2021/09/26 06:02:24;;;;;;;53.88;26.55;;;13.10;99.90;;;;;;21154171;28;20039;-53
2021/09/26 06:12:27;;;;;;;39.67;22.52;;;13.20;99.90;;;;;;21190517;28;20043;-51
2021/09/26 06:22:29;;;;;;;36.65;21.65;;;13.30;99.90;;;;;;21170675;28;20036;-53
2021/09/26 06:32:31;;;;;;;38.50;20.98;;;13.60;99.90;;;;;;21143671;28;20028;-52
2021/09/26 06:42:34;;;;;;;24.50;15.23;;;14.00;99.90;;;;;;21110303;28;20048;-54
2021/09/26 06:52:36;;;;;;;19.83;12.07;;;14.30;99.90;;;;;;21083718;28;20070;-51
2021/09/26 07:02:38;;;;;;;22.65;15.75;;;14.60;99.90;;;;;;21083089;28;20105;-55
2021/09/26 07:12:40;;;;;;;21.13;14.43;;;15.20;99.90;;;;;;21064373;28;20105;-52
2021/09/26 07:22:42;;;;;;;22.70;13.85;;;15.80;99.90;;;;;;21080443;28;20036;-56
2021/09/26 07:32:44;;;;;;;18.45;13.75;;;16.50;99.90;;;;;;21080986;28;20035;-53
2021/09/26 07:42:46;;;;;;;16.55;12.85;;;16.50;99.90;;;;;;21079776;28;20040;-50
2021/09/26 07:52:49;;;;;;;19.27;12.82;;;17.60;99.90;;;;;;21078691;28;20032;-54
2021/09/26 08:02:51;;;;;;;22.15;13.18;;;18.90;99.90;;;;;;21078239;28;20379;-56
2021/09/26 08:12:56;;;;;;;22.58;14.13;;;18.20;99.90;;;;;;21077075;28;20024;-53
2021/09/26 08:22:59;;;;;;;20.83;13.45;;;17.50;99.90;;;;;;21076489;28;20081;-53
2021/09/26 08:33:02;;;;;;;23.33;13.65;;;17.10;99.90;;;;;;21075658;28;20324;-53
2021/09/26 08:43:05;;;;;;;24.65;15.73;;;16.90;99.90;;;;;;21074716;28;20058;-55
2021/09/26 08:53:08;;;;;;;27.15;16.08;;;16.40;99.90;;;;;;21073698;28;20044;-53
2021/09/26 09:03:11;;;;;;;26.38;15.75;;;15.60;99.90;;;;;;21073375;28;20040;-52
2021/09/26 09:13:21;;;;;;;29.65;18.25;;;15.00;99.90;;;;;;21072197;28;20028;-50
2021/09/26 09:23:24;;;;;;;24.92;16.40;;;14.60;99.90;;;;;;21055722;28;20028;-53
2021/09/26 09:33:38;;;;;;;34.60;20.60;;;14.20;99.90;;;;;;21071969;28;20082;-50
2021/09/26 09:43:50;;;;;;;32.40;19.75;;;14.20;99.90;;;;;;21137519;28;20074;-49
2021/09/26 09:53:52;;;;;;;30.67;18.05;;;14.50;99.90;;;;;;21149982;28;20077;-49
2021/09/26 10:03:58;;;;;;;29.00;17.98;;;14.50;99.90;;;;;;21153969;28;20536;-54
2021/09/26 10:14:01;;;;;;;34.90;22.52;;;14.60;99.90;;;;;;21153108;28;20039;-50
2021/09/26 10:24:07;;;;;;;27.15;13.60;;;14.90;99.90;;;;;;21152848;28;20089;-52
2021/09/26 10:34:10;;;;;;;27.70;16.65;;;15.30;99.90;;;;;;21152501;28;20077;-50
2021/09/26 10:44:37;;;;;;;29.45;18.23;;;15.30;99.90;;;;;;21152691;28;20526;-51
2021/09/26 10:54:40;;;;;;;35.20;16.17;;;14.80;99.90;;;;;;21162165;28;20087;-49
2021/09/26 11:04:42;;;;;;;18.70;10.80;;;14.60;99.90;;;;;;21168111;28;20032;-49
2021/09/26 11:15:01;;;;;;;27.85;13.13;;;14.60;99.90;;;;;;21167562;28;20479;-48
2021/09/26 11:25:04;;;;;;;21.17;10.17;;;14.40;99.90;;;;;;21168163;28;20027;-48
2021/09/26 11:35:33;;;;;;;19.27;10.10;;;14.30;99.90;;;;;;21168094;28;20050;-48
2021/09/26 11:45:36;;;;;;;22.52;11.00;;;14.10;99.90;;;;;;21179253;28;20039;-47
2021/09/26 11:55:39;;;;;;;30.92;14.75;;;14.10;99.90;;;;;;21181028;28;20585;-48
2021/09/26 12:05:42;;;;;;;20.65;10.80;;;14.00;99.90;;;;;;21189259;28;20035;-49
2021/09/26 12:15:45;;;;;;;22.95;11.00;;;14.10;99.90;;;;;;21166076;28;20043;-49
2021/09/26 12:25:58;;;;;;;23.08;9.98;;;14.10;99.90;;;;;;21178617;28;20107;-47
2021/09/26 12:36:05;;;;;;;18.10;8.43;;;14.20;99.90;;;;;;21178699;28;20104;-48
2021/09/26 12:46:10;;;;;;;17.08;9.40;;;14.20;99.90;;;;;;21171528;28;20048;-48
2021/09/26 12:56:19;;;;;;;15.10;8.38;;;14.20;99.90;;;;;;21166415;28;20536;-48
2021/09/26 13:06:33;;;;;;;17.67;9.60;;;14.10;99.90;;;;;;21164952;28;20089;-49
2021/09/26 13:16:44;;;;;;;13.48;7.28;;;14.10;99.90;;;;;;21164202;28;20061;-48
2021/09/26 13:26:47;;;;;;;13.23;6.30;;;14.10;99.90;;;;;;21161608;28;20085;-52
2021/09/26 13:36:48;;;;;;;17.52;6.97;;;14.20;99.90;;;;;;21173013;27;20039;-51
2021/09/26 13:46:51;;;;;;;16.58;6.97;;;14.40;99.90;;;;;;21204650;27;20028;-49
2021/09/26 13:56:53;;;;;;;36.30;6.63;;;14.50;99.90;;;;;;21162725;28;20032;-49
2021/09/26 14:06:56;;;;;;;14.30;5.90;;;14.80;99.90;;;;;;21153894;28;20028;-51
2021/09/26 14:16:58;;;;;;;21.38;6.45;;;15.10;99.90;;;;;;21140600;28;20043;-51
2021/09/26 14:27:01;;;;;;;132.63;10.10;;;15.20;99.90;;;;;;21143199;28;20104;-49
2021/09/26 14:37:04;;;;;;;165.15;11.05;;;15.10;99.90;;;;;;21162072;28;20051;-50
2021/09/26 14:47:06;;;;;;;27.83;7.22;;;14.90;99.90;;;;;;21088080;28;20028;-50
2021/09/26 14:57:08;;;;;;;15.88;7.03;;;14.70;99.90;;;;;;21073059;28;20098;-49
2021/09/26 15:07:11;;;;;;;17.88;7.18;;;14.60;99.90;;;;;;21101509;28;20035;-47
2021/09/26 15:17:13;;;;;;;358.83;19.17;;;14.50;99.90;;;;;;21097796;28;20032;-49
2021/09/26 15:27:15;;;;;;;330.63;18.45;;;14.40;99.90;;;;;;21103144;28;20078;-47
2021/09/26 15:37:17;;;;;;;729.33;37.33;;;14.30;99.90;;;;;;21099469;28;20063;-47
2021/09/26 15:47:19;;;;;;;672.70;31.88;;;14.20;99.90;;;;;;21099192;28;20458;-48
2021/09/26 15:57:21;;;;;;;606.05;26.25;;;14.00;99.90;;;;;;21094007;28;20102;-51
2021/09/26 16:07:23;;;;;;;690.08;38.40;;;13.60;99.90;;;;;;21090730;28;20036;-49
2021/09/26 16:17:26;;;;;;;768.65;35.00;;;13.40;99.90;;;;;;21087905;28;20032;-49
2021/09/26 16:27:28;;;;;;;573.78;21.10;;;13.20;99.90;;;;;;21085509;28;20044;-48
2021/09/26 16:37:30;;;;;;;565.30;26.73;;;13.20;99.90;;;;;;21099722;28;20069;-52
2021/09/26 16:47:34;;;;;;;401.85;20.58;;;13.10;99.90;;;;;;21140389;28;20035;-52
2021/09/26 16:57:36;;;;;;;225.30;12.00;;;13.10;99.90;;;;;;21166070;28;20032;-50
2021/09/26 17:07:38;;;;;;;7.00;3.85;;;13.00;99.90;;;;;;21163679;28;20062;-50
2021/09/26 17:17:41;;;;;;;7.75;3.55;;;13.00;99.90;;;;;;21162804;28;20096;-49
2021/09/26 17:27:43;;;;;;;10.65;3.42;;;12.80;99.90;;;;;;21160810;28;20053;-48
2021/09/26 17:37:45;;;;;;;7.03;3.60;;;12.60;99.90;;;;;;21158997;28;20054;-48
2021/09/26 17:47:47;;;;;;;7.82;3.55;;;12.50;99.90;;;;;;21159986;28;20039;-51
2021/09/26 17:57:51;;;;;;;10.68;3.60;;;12.40;99.90;;;;;;21157461;28;20101;-52
2021/09/26 18:07:53;;;;;;;6.85;3.20;;;12.40;99.90;;;;;;21138125;28;20544;-52
2021/09/26 18:17:56;;;;;;;5.68;2.80;;;12.40;99.90;;;;;;21156047;28;20540;-50
2021/09/26 18:27:57;;;;;;;4.15;2.20;;;12.40;99.90;;;;;;21157552;28;20038;-48
2021/09/26 18:37:59;;;;;;;4.95;2.63;;;12.30;99.90;;;;;;21157059;28;20048;-48
2021/09/26 18:48:03;;;;;;;7.20;3.00;;;12.20;99.90;;;;;;21154139;28;20046;-49
2021/09/26 18:58:05;;;;;;;6.65;2.95;;;12.00;99.90;;;;;;21154455;28;20036;-49
2021/09/26 19:08:08;;;;;;;4.95;2.92;;;11.80;99.90;;;;;;21202325;28;20099;-49
2021/09/26 19:18:11;;;;;;;6.93;3.75;;;11.60;99.90;;;;;;21247205;27;20097;-49
2021/09/26 19:28:13;;;;;;;6.32;2.83;;;11.60;99.90;;;;;;21251102;27;20060;-51
2021/09/26 19:38:16;;;;;;;6.88;3.25;;;11.50;99.90;;;;;;21250722;27;20035;-52
2021/09/26 19:48:18;;;;;;;7.82;3.80;;;11.50;99.90;;;;;;21208547;27;20469;-49
2021/09/26 19:58:21;;;;;;;6.35;3.80;;;11.40;99.90;;;;;;21164304;28;20081;-49
2021/09/26 20:08:23;;;;;;;8.38;2.92;;;11.30;99.90;;;;;;21166844;27;20053;-50
2021/09/26 20:18:27;;;;;;;10.07;4.10;;;11.10;99.90;;;;;;21163798;28;20042;-49
2021/09/26 20:28:30;;;;;;;6.70;3.25;;;11.00;99.90;;;;;;21160798;28;20035;-50
2021/09/26 20:38:32;;;;;;;7.78;3.72;;;10.90;99.90;;;;;;21160051;28;20088;-50
2021/09/26 20:48:34;;;;;;;8.50;3.78;;;10.70;99.90;;;;;;21155870;28;20081;-51
2021/09/26 20:58:36;;;;;;;9.15;4.03;;;10.40;99.90;;;;;;21159482;28;20038;-51
2021/09/26 21:08:38;;;;;;;8.80;4.63;;;10.30;99.90;;;;;;21154384;28;20515;-51
2021/09/26 21:18:40;;;;;;;13.05;5.57;;;10.10;99.90;;;;;;21156529;28;20035;-51
2021/09/26 21:28:42;;;;;;;16.42;5.95;;;10.00;99.90;;;;;;21158402;28;20463;-50
2021/09/26 21:38:43;;;;;;;13.80;5.68;;;9.90;99.90;;;;;;21182422;27;20043;-52
2021/09/26 21:48:45;;;;;;;10.15;5.22;;;9.80;99.90;;;;;;21200498;27;20042;-50
2021/09/26 21:58:47;;;;;;;17.75;5.43;;;9.80;99.90;;;;;;21155871;28;20032;-50
2021/09/26 22:08:49;;;;;;;15.73;5.63;;;9.70;99.90;;;;;;21148395;28;20121;-49
2021/09/26 22:18:51;;;;;;;15.68;6.30;;;9.70;99.90;;;;;;21154196;28;20028;-49
2021/09/26 22:28:55;;;;;;;15.35;6.72;;;9.70;99.90;;;;;;21154584;28;20035;-50
2021/09/26 22:38:57;;;;;;;14.75;6.28;;;9.60;99.90;;;;;;21126097;28;20372;-49
2021/09/26 22:48:59;;;;;;;14.63;6.47;;;9.50;99.90;;;;;;21056353;28;20059;-49
2021/09/26 22:59:01;;;;;;;9.35;5.05;;;9.30;99.90;;;;;;21066485;28;20040;-50
2021/09/26 23:09:03;;;;;;;10.93;5.68;;;9.10;99.90;;;;;;21083507;28;20032;-51
2021/09/26 23:19:05;;;;;;;16.60;6.40;;;9.00;99.90;;;;;;21083152;28;20471;-49
2021/09/26 23:29:08;;;;;;;13.45;6.40;;;9.20;99.90;;;;;;21063944;28;20035;-50
2021/09/26 23:39:10;;;;;;;9.95;4.38;;;9.40;99.90;;;;;;21080651;28;20044;-50
2021/09/26 23:49:12;;;;;;;9.95;4.57;;;9.30;99.90;;;;;;21080397;28;20020;-51
2021/09/26 23:59:14;;;;;;;14.82;4.72;;;9.10;99.90;;;;;;21078789;28;20031;-49
